Terminal Aerodrome Forecast
Issued by NWS Billings, MT

Home | Current Version | Previous Version | Text Only | Print | Product List | Glossary On
Versions: 1 2 3 4 5 6 7 8 9 10 11 12 13 14
000
FTUS45 KBYZ 131720
TAFMLS
TAF
KMLS 131720Z 1318/1418 32014KT P6SM SCT100
     FM132000 32015KT P6SM BKN090
     FM140200 31010KT P6SM BKN070
     FM140800 31018KT P6SM BKN050=

USA.gov is the U.S. government's official web portal to all federal, state and local government web resources and services.